Time;durP1;ratioP1;P1;durP2;ratioP2;P2;SDS_P1;SDS_P2;PMS_P1;PMS_P2;Temp;Humidity;BMP_temperature;BMP_pressure;BME280_temperature;BME280_humidity;BME280_pressure;Samples;Min_cycle;Max_cycle;Signal;HPM_P1;HPM_P2
2022/05/05 00:00:50;;;;;;;;;8.00;8.00;;;;;22.47;36.91;101211.73;110338;1262;20087;-49
2022/05/05 00:03:17;;;;;;;;;7.67;7.33;;;;;22.46;36.79;101207.84;110302;1264;22102;-49
2022/05/05 00:05:45;;;;;;;;;9.00;9.00;;;;;22.46;36.77;101205.91;110392;1262;18511;-49
2022/05/05 00:08:12;;;;;;;;;6.67;6.67;;;;;22.46;36.92;101207.98;110328;1262;18829;-49
2022/05/05 00:16:09;;;;;;;;;9.00;8.00;;;;;22.45;36.85;101197.52;110257;1262;22472;-48
2022/05/05 00:18:36;;;;;;;;;6.00;6.00;;;;;22.44;37.00;101196.59;110475;1262;19500;-48
2022/05/05 00:21:03;;;;;;;;;12.67;10.67;;;;;22.44;36.75;101194.75;110333;1262;18877;-49
2022/05/05 00:23:31;;;;;;;;;7.00;7.00;;;;;22.44;36.78;101193.99;110426;1262;20213;-53
2022/05/05 00:25:58;;;;;;;;;9.33;8.67;;;;;22.44;36.72;101197.07;110276;1261;22357;-49
2022/05/05 00:28:25;;;;;;;;;9.33;7.00;;;;;22.45;36.56;101203.04;110438;1261;20055;-50
2022/05/05 00:30:53;;;;;;;;;9.00;7.67;;;;;22.44;36.64;101195.88;110509;1262;19025;-48
2022/05/05 00:33:24;;;;;;;;;7.00;7.00;;;;;22.44;36.68;101197.45;110359;1262;22272;-48
2022/05/05 00:35:51;;;;;;;;;8.00;8.00;;;;;22.44;36.45;101191.42;110234;1264;18554;-48
2022/05/05 00:38:18;;;;;;;;;7.00;7.00;;;;;22.44;36.58;101190.92;110331;1262;19484;-48
2022/05/05 00:40:45;;;;;;;;;9.00;8.00;;;;;22.45;36.60;101192.29;110302;1262;19540;-50
2022/05/05 00:43:13;;;;;;;;;9.00;9.00;;;;;22.44;36.56;101192.31;110258;1262;18586;-49
2022/05/05 00:45:40;;;;;;;;;9.00;7.00;;;;;22.44;36.40;101191.64;110497;1262;20260;-48
2022/05/05 00:48:07;;;;;;;;;9.00;7.00;;;;;22.44;36.55;101193.14;110316;1261;19656;-48
2022/05/05 00:50:34;;;;;;;;;6.33;6.33;;;;;22.43;36.39;101193.17;110452;1262;18577;-49
2022/05/05 00:53:01;;;;;;;;;9.00;7.00;;;;;22.45;36.49;101193.16;110265;1262;18803;-50
2022/05/05 00:55:29;;;;;;;;;8.50;7.00;;;;;22.45;36.44;101194.81;110282;1264;20943;-49
2022/05/05 00:57:56;;;;;;;;;10.00;9.00;;;;;22.44;36.33;101192.19;110292;1264;22837;-48
2022/05/05 01:00:23;;;;;;;;;8.00;7.00;;;;;22.45;36.44;101190.95;110341;1264;18829;-52
2022/05/05 01:02:50;;;;;;;;;8.67;7.33;;;;;22.45;36.34;101190.05;110262;1265;19600;-48
2022/05/05 01:05:18;;;;;;;;;7.67;7.00;;;;;22.45;36.33;101192.48;110263;1264;20349;-48
2022/05/05 01:07:45;;;;;;;;;9.00;7.00;;;;;22.45;36.43;101188.46;110280;1264;18882;-48
2022/05/05 01:10:12;;;;;;;;;8.00;7.00;;;;;22.45;36.42;101188.29;110269;1265;19631;-49
2022/05/05 01:12:40;;;;;;;;;9.00;8.00;;;;;22.45;36.49;101192.24;110356;1264;18398;-50
2022/05/05 01:15:07;;;;;;;;;9.00;7.33;;;;;22.45;36.31;101191.23;110285;1264;18829;-49
2022/05/05 01:17:34;;;;;;;;;9.00;9.00;;;;;22.45;36.34;101191.52;110300;1265;19451;-49
2022/05/05 01:20:01;;;;;;;;;10.00;9.00;;;;;22.45;36.33;101191.18;110270;1264;19530;-48
2022/05/05 01:22:29;;;;;;;;;9.00;8.67;;;;;22.44;36.25;101193.95;110263;1264;21110;-49
2022/05/05 01:30:26;;;;;;;;;7.00;7.00;;;;;22.44;36.28;101191.09;110331;1264;18720;-49
2022/05/05 01:32:53;;;;;;;;;7.67;7.00;;;;;22.45;36.31;101190.48;110237;1264;22646;-51
2022/05/05 01:35:20;;;;;;;;;9.00;7.00;;;;;22.44;36.31;101188.33;110268;1265;18491;-47
2022/05/05 01:37:48;;;;;;;;;7.33;6.00;;;;;22.44;36.20;101183.83;110307;1263;18768;-50
2022/05/05 01:40:16;;;;;;;;;7.00;7.00;;;;;22.44;36.31;101183.27;110239;1264;19713;-48
2022/05/05 01:42:43;;;;;;;;;10.00;10.00;;;;;22.43;36.07;101175.87;110308;1264;22615;-49
2022/05/05 01:45:10;;;;;;;;;7.50;7.00;;;;;22.43;36.25;101177.00;110214;1265;18872;-47
2022/05/05 01:47:37;;;;;;;;;9.50;9.00;;;;;22.44;36.14;101177.30;110234;1265;19470;-49
2022/05/05 01:50:05;;;;;;;;;9.00;8.67;;;;;22.43;36.24;101176.08;110252;1263;18717;-50
2022/05/05 01:52:32;;;;;;;;;7.00;6.00;;;;;22.43;36.07;101174.44;110316;1264;21964;-50
2022/05/05 01:54:59;;;;;;;;;9.00;7.00;;;;;22.43;36.13;101176.96;110286;1264;21237;-49
2022/05/05 01:57:26;;;;;;;;;7.00;6.00;;;;;22.43;36.30;101178.10;110314;1264;18426;-48
2022/05/05 01:59:54;;;;;;;;;9.00;9.00;;;;;22.44;36.20;101184.02;110297;1265;21903;-48
2022/05/05 02:02:21;;;;;;;;;6.33;6.33;;;;;22.43;36.22;101188.98;110307;1265;19615;-49
2022/05/05 02:04:50;;;;;;;;;10.00;8.50;;;;;22.44;36.11;101190.75;110291;1265;18480;-49
2022/05/05 02:07:17;;;;;;;;;10.00;9.00;;;;;22.43;36.11;101192.84;110284;1264;19209;-47
2022/05/05 02:09:45;;;;;;;;;7.00;7.00;;;;;22.43;36.20;101191.16;110355;1264;19631;-49
2022/05/05 02:12:12;;;;;;;;;7.00;6.67;;;;;22.44;36.30;101187.67;110211;1265;18758;-51
2022/05/05 02:14:39;;;;;;;;;8.67;8.67;;;;;22.44;36.15;101188.15;110254;1263;18697;-54
2022/05/05 02:17:06;;;;;;;;;9.00;8.67;;;;;22.44;36.16;101185.49;110215;1264;22678;-50
2022/05/05 02:19:34;;;;;;;;;10.00;10.00;;;;;22.44;36.17;101182.94;110250;1265;24719;-47
2022/05/05 02:22:02;;;;;;;;;9.00;9.00;;;;;22.43;36.23;101175.88;110274;1264;18822;-48
2022/05/05 02:24:29;;;;;;;;;7.00;7.00;;;;;22.43;36.26;101169.86;110347;1264;19750;-49
2022/05/05 02:26:57;;;;;;;;;6.00;6.00;;;;;22.43;36.03;101166.63;110267;1264;18553;-46
2022/05/05 02:29:24;;;;;;;;;10.00;9.00;;;;;22.43;36.03;101167.89;110268;1264;18695;-49
2022/05/05 02:31:51;;;;;;;;;9.00;9.00;;;;;22.43;36.20;101159.89;110266;1264;19390;-47
2022/05/05 02:34:18;;;;;;;;;7.00;7.00;;;;;22.43;36.00;101158.12;110291;1264;18784;-45
2022/05/05 02:39:30;;;;;;;;;7.00;7.00;;;;;22.43;36.21;101157.71;110322;1264;19895;-49
2022/05/05 02:41:58;;;;;;;;;7.00;7.00;;;;;22.43;36.19;101155.56;110217;1264;18768;-48
2022/05/05 02:44:26;;;;;;;;;9.00;7.00;;;;;22.42;36.04;101159.25;110315;1264;21719;-51
2022/05/05 02:46:53;;;;;;;;;10.00;7.00;;;;;22.43;36.13;101161.36;110279;1264;19629;-49
2022/05/05 02:49:20;;;;;;;;;7.33;7.00;;;;;22.42;36.18;101163.83;110310;1263;18565;-50
2022/05/05 02:51:47;;;;;;;;;10.00;9.00;;;;;22.42;36.23;101164.89;110314;1265;18838;-50
2022/05/05 02:57:00;;;;;;;;;7.00;7.00;;;;;22.43;36.35;101160.85;110244;1264;23578;-53
2022/05/05 02:59:27;;;;;;;;;10.00;9.50;;;;;22.43;36.22;101160.86;110250;1264;18617;-49
2022/05/05 03:01:54;;;;;;;;;10.00;9.00;;;;;22.43;36.23;101155.02;110267;1264;19698;-49
2022/05/05 03:04:22;;;;;;;;;8.00;7.33;;;;;22.42;36.07;101157.27;110229;1264;18736;-48
2022/05/05 03:06:49;;;;;;;;;9.00;8.67;;;;;22.43;36.09;101159.02;110333;1264;20657;-47
2022/05/05 03:09:16;;;;;;;;;10.00;9.00;;;;;22.43;36.14;101154.02;110297;1265;22687;-50
2022/05/05 03:11:44;;;;;;;;;9.00;9.00;;;;;22.42;36.13;101149.24;110282;1265;18466;-50
2022/05/05 03:14:11;;;;;;;;;7.33;7.33;;;;;22.42;36.26;101150.67;110290;1264;18725;-49
2022/05/05 03:16:38;;;;;;;;;7.33;7.00;;;;;22.43;36.24;101149.48;110299;1264;22801;-48
2022/05/05 03:19:05;;;;;;;;;10.67;9.00;;;;;22.42;36.01;101149.45;110289;1264;20495;-49
2022/05/05 03:21:33;;;;;;;;;6.67;6.00;;;;;22.43;36.15;101149.21;110305;1264;18737;-50
2022/05/05 03:24:00;;;;;;;;;9.33;7.67;;;;;22.43;36.10;101154.13;110287;1265;19704;-50
2022/05/05 03:26:27;;;;;;;;;7.33;7.33;;;;;22.43;35.97;101158.09;110282;1263;20123;-49
2022/05/05 03:28:54;;;;;;;;;7.00;6.67;;;;;22.43;36.12;101156.11;110256;1265;18830;-48
2022/05/05 03:31:21;;;;;;;;;9.33;9.00;;;;;22.43;36.04;101161.88;110288;1264;19560;-50
2022/05/05 03:33:49;;;;;;;;;8.00;8.00;;;;;22.43;36.18;101162.08;110328;1263;18912;-48
2022/05/05 03:36:16;;;;;;;;;10.33;9.33;;;;;22.43;36.09;101156.48;110301;1264;22814;-49
2022/05/05 03:38:43;;;;;;;;;9.00;8.33;;;;;22.43;36.21;101153.00;110286;1263;19606;-49
2022/05/05 03:41:10;;;;;;;;;9.00;7.00;;;;;22.42;36.09;101150.31;110314;1264;18776;-49
2022/05/05 03:43:38;;;;;;;;;9.00;9.00;;;;;22.43;36.20;101147.75;110284;1265;20176;-49
2022/05/05 03:46:05;;;;;;;;;9.00;8.50;;;;;22.43;36.15;101150.02;110282;1264;20009;-50
2022/05/05 03:48:32;;;;;;;;;6.00;6.00;;;;;22.43;36.18;101152.30;110337;1265;18393;-49
2022/05/05 03:51:00;;;;;;;;;9.00;9.00;;;;;22.42;36.28;101155.27;110223;1264;18816;-50
2022/05/05 03:53:27;;;;;;;;;9.33;9.00;;;;;22.43;36.38;101163.55;110278;1265;20061;-49
2022/05/05 03:55:54;;;;;;;;;8.67;7.33;;;;;22.43;36.33;101165.77;110235;1264;18475;-48
2022/05/05 03:58:21;;;;;;;;;8.00;7.00;;;;;22.43;36.39;101164.84;110276;1263;18702;-49
2022/05/05 04:00:48;;;;;;;;;10.00;7.67;;;;;22.43;36.41;101167.75;110333;1265;19610;-51
2022/05/05 04:03:31;;;;;;;;;7.50;7.00;;;;;22.42;36.38;101171.85;110248;1264;18506;-52
2022/05/05 04:05:58;;;;;;;;;9.00;7.33;;;;;22.42;36.41;101174.92;110298;1264;18641;-47
2022/05/05 04:08:26;;;;;;;;;9.67;9.00;;;;;22.43;36.28;101181.78;110290;1263;19628;-50
2022/05/05 04:10:53;;;;;;;;;7.00;7.00;;;;;22.44;36.32;101188.60;110280;1264;18468;-50
2022/05/05 04:13:20;;;;;;;;;7.00;7.00;;;;;22.43;36.30;101186.33;110294;1264;18583;-50
2022/05/05 04:15:47;;;;;;;;;7.00;6.00;;;;;22.42;36.33;101184.04;110335;1264;22955;-48
2022/05/05 04:18:15;;;;;;;;;6.00;6.00;;;;;22.41;36.34;101184.71;110296;1265;18588;-49
2022/05/05 04:20:42;;;;;;;;;8.50;8.50;;;;;22.43;36.26;101185.60;110288;1263;18862;-49
2022/05/05 04:23:09;;;;;;;;;6.00;6.00;;;;;22.43;36.34;101185.20;110306;1264;19542;-50
2022/05/05 04:25:36;;;;;;;;;8.33;8.00;;;;;22.42;36.21;101186.27;110248;1263;18487;-50
2022/05/05 04:28:04;;;;;;;;;9.00;7.00;;;;;22.42;36.27;101193.66;110280;1263;20175;-48
2022/05/05 04:30:31;;;;;;;;;7.00;7.00;;;;;22.43;36.25;101196.84;110233;1264;19598;-47
2022/05/05 04:32:59;;;;;;;;;6.00;6.00;;;;;22.43;36.25;101197.20;110226;1263;18372;-47
2022/05/05 04:35:26;;;;;;;;;8.33;7.00;;;;;22.43;36.34;101199.36;110284;1263;18731;-47
2022/05/05 04:37:53;;;;;;;;;9.00;7.50;;;;;22.44;36.39;101200.38;110291;1264;19662;-46
2022/05/05 04:40:21;;;;;;;;;6.00;6.00;;;;;22.45;36.24;101200.85;110262;1264;18594;-49
2022/05/05 04:42:48;;;;;;;;;9.50;9.00;;;;;22.44;36.27;101194.20;110325;1264;21653;-49
2022/05/05 04:45:15;;;;;;;;;9.00;9.00;;;;;22.44;36.40;101193.31;110313;1264;22810;-49
2022/05/05 04:47:43;;;;;;;;;7.00;7.00;;;;;22.43;36.45;101192.17;110268;1263;18400;-49
2022/05/05 04:50:10;;;;;;;;;10.00;7.00;;;;;22.44;36.34;101190.59;110299;1264;18694;-48
2022/05/05 04:52:37;;;;;;;;;6.50;6.50;;;;;22.44;36.28;101191.84;110210;1264;20087;-48
2022/05/05 04:55:04;;;;;;;;;8.67;8.67;;;;;22.43;36.23;101188.51;110323;1264;18769;-48
2022/05/05 04:57:32;;;;;;;;;9.00;9.00;;;;;22.44;36.33;101190.41;110318;1265;18746;-48
2022/05/05 04:59:59;;;;;;;;;9.00;7.00;;;;;22.43;36.17;101194.07;110262;1264;22686;-50
2022/05/05 05:02:26;;;;;;;;;9.00;8.00;;;;;22.44;36.26;101198.06;110265;1264;18423;-49
2022/05/05 05:04:53;;;;;;;;;7.33;7.33;;;;;22.44;35.87;101197.85;110239;1264;22820;-49
2022/05/05 05:07:21;;;;;;;;;10.67;8.67;;;;;22.44;35.88;101198.20;110258;1264;19720;-49
2022/05/05 05:09:48;;;;;;;;;10.00;9.00;;;;;22.45;35.98;101197.95;110278;1264;18498;-49
2022/05/05 05:12:16;;;;;;;;;9.00;7.33;;;;;22.44;35.91;101197.78;110279;1264;18878;-53
2022/05/05 05:14:43;;;;;;;;;10.00;9.00;;;;;22.44;35.79;101195.97;110298;1263;19500;-50
2022/05/05 05:17:10;;;;;;;;;9.00;9.00;;;;;22.44;35.70;101193.79;110322;1265;18690;-49
2022/05/05 05:19:37;;;;;;;;;6.33;6.00;;;;;22.44;36.03;101194.88;110318;1264;18757;-50
2022/05/05 05:22:05;;;;;;;;;6.67;6.67;;;;;22.44;35.95;101192.39;110342;1265;19494;-50
2022/05/05 05:24:33;;;;;;;;;9.00;7.00;;;;;22.44;36.10;101194.41;110330;1265;18283;-49
2022/05/05 05:27:00;;;;;;;;;11.00;10.00;;;;;22.44;36.09;101194.95;110247;1264;18892;-50
2022/05/05 05:29:27;;;;;;;;;7.67;7.00;;;;;22.44;36.11;101196.42;110236;1264;21416;-50
2022/05/05 05:31:54;;;;;;;;;9.00;9.00;;;;;22.45;36.22;101200.67;110229;1264;20917;-49
2022/05/05 05:34:21;;;;;;;;;9.33;9.00;;;;;22.44;36.25;101200.42;110276;1264;19002;-49
2022/05/05 05:36:50;;;;;;;;;7.00;7.00;;;;;22.44;36.11;101201.50;110295;1265;19684;-49
2022/05/05 05:39:17;;;;;;;;;7.00;7.00;;;;;22.44;36.20;101198.02;110295;1265;18566;-50
2022/05/05 05:41:44;;;;;;;;;7.00;7.00;;;;;22.44;36.00;101200.38;110282;1265;22091;-50
2022/05/05 05:44:12;;;;;;;;;10.00;9.00;;;;;22.42;36.26;101194.00;110276;1265;20119;-48
2022/05/05 05:46:39;;;;;;;;;7.00;7.00;;;;;22.43;36.26;101196.49;110195;1264;21373;-49
2022/05/05 05:49:06;;;;;;;;;7.00;7.00;;;;;22.45;36.32;101196.48;110281;1264;18642;-48
2022/05/05 05:51:34;;;;;;;;;10.00;7.50;;;;;22.50;36.85;101202.77;110269;1264;19481;-53
2022/05/05 05:54:01;;;;;;;;;8.33;7.67;;;;;22.53;36.93;101203.86;110267;1264;18662;-49
2022/05/05 05:56:28;;;;;;;;;7.00;7.00;;;;;22.54;36.72;101206.86;110236;1264;18860;-50
2022/05/05 05:58:56;;;;;;;;;7.00;7.00;;;;;22.57;37.42;101206.16;110259;1264;19472;-48
2022/05/05 06:03:53;;;;;;;;;8.00;8.00;;;;;22.58;37.61;101209.66;110262;1264;18604;-48
2022/05/05 06:04:10;;;;;;;;;10.00;9.00;;;;;22.61;37.97;101208.36;110224;1265;18792;-50
2022/05/05 06:06:38;;;;;;;;;9.00;7.00;;;;;22.64;38.24;101211.11;110316;1265;19531;-48
2022/05/05 06:09:05;;;;;;;;;8.00;7.33;;;;;22.68;38.17;101212.16;110228;1264;20161;-49
2022/05/05 06:11:33;;;;;;;;;9.00;7.00;;;;;22.70;38.13;101215.62;110289;1265;18643;-49
2022/05/05 06:14:04;;;;;;;;;7.33;6.67;;;;;22.71;37.85;101214.42;110258;1263;19532;-48
2022/05/05 06:16:31;;;;;;;;;8.00;8.00;;;;;22.67;37.64;101218.27;110208;1263;18434;-50
2022/05/05 06:18:58;;;;;;;;;10.00;9.00;;;;;22.64;37.63;101219.64;110268;1264;18718;-49
2022/05/05 06:21:26;;;;;;;;;10.00;9.00;;;;;22.70;37.58;101223.59;110227;1264;19946;-47
2022/05/05 06:23:53;;;;;;;;;6.33;6.33;;;;;22.72;37.79;101220.45;110268;1265;22232;-48
2022/05/05 06:26:21;;;;;;;;;7.00;7.00;;;;;22.79;38.10;101221.39;110254;1263;21811;-49
2022/05/05 06:28:49;;;;;;;;;10.33;10.33;;;;;22.85;37.94;101218.94;110261;1263;19557;-49
2022/05/05 06:31:16;;;;;;;;;10.67;8.67;;;;;22.84;37.96;101219.05;110268;1264;18467;-49
2022/05/05 06:33:44;;;;;;;;;11.00;11.00;;;;;22.83;37.92;101222.41;110286;1265;22159;-49
2022/05/05 06:36:11;;;;;;;;;8.00;7.00;;;;;22.83;37.96;101220.38;110220;1264;21052;-47
2022/05/05 06:38:39;;;;;;;;;10.50;10.50;;;;;22.88;37.88;101214.38;110248;1264;22274;-48
2022/05/05 06:41:08;;;;;;;;;10.00;9.00;;;;;22.88;37.86;101216.01;110155;1264;19255;-48
2022/05/05 06:43:35;;;;;;;;;10.00;9.67;;;;;22.83;37.91;101211.27;110088;1264;19731;-49
2022/05/05 06:46:03;;;;;;;;;12.67;12.67;;;;;22.72;36.83;101214.25;110171;1264;18870;-47
2022/05/05 06:48:31;;;;;;;;;13.67;12.33;;;;;22.38;35.69;101217.27;110172;1265;18943;-48
2022/05/05 06:50:58;;;;;;;;;12.00;11.00;;;;;22.19;35.64;101215.15;110150;1264;19606;-47
2022/05/05 06:53:25;;;;;;;;;13.00;11.00;;;;;22.08;35.33;101216.17;110167;1264;21816;-49
2022/05/05 06:55:55;;;;;;;;;13.00;11.00;;;;;22.03;34.74;101214.86;110193;1264;18955;-48
2022/05/05 06:58:22;;;;;;;;;13.00;11.00;;;;;21.93;34.58;101212.51;110373;1261;19537;-49
2022/05/05 07:03:34;;;;;;;;;14.00;13.67;;;;;21.87;34.24;101207.36;110129;1264;18781;-48
2022/05/05 07:06:02;;;;;;;;;11.33;10.67;;;;;21.95;34.21;101212.54;110186;1265;20942;-48
2022/05/05 07:10:52;;;;;;;;;14.00;14.00;;;;;22.05;34.38;101213.20;110289;1262;18770;-52
2022/05/05 07:11:16;;;;;;;;;13.67;13.00;;;;;22.11;34.44;101213.62;110241;1262;22466;-48
2022/05/05 07:13:44;;;;;;;;;14.00;13.33;;;;;22.20;34.67;101212.64;110342;1262;19604;-49
2022/05/05 07:16:11;;;;;;;;;12.50;12.00;;;;;22.01;34.51;101217.67;110414;1262;18755;-50
2022/05/05 07:18:38;;;;;;;;;12.00;12.00;;;;;21.94;34.80;101212.61;110311;1262;20186;-48
2022/05/05 07:21:05;;;;;;;;;13.67;13.67;;;;;21.78;34.74;101217.58;110450;1262;21103;-50
2022/05/05 07:23:32;;;;;;;;;12.00;11.33;;;;;21.86;34.90;101214.09;110227;1262;18741;-49
2022/05/05 07:26:00;;;;;;;;;14.00;11.50;;;;;22.09;35.08;101216.96;110417;1262;19272;-49
2022/05/05 07:28:27;;;;;;;;;14.67;13.33;;;;;22.24;35.24;101214.89;110420;1262;19440;-48
2022/05/05 07:30:54;;;;;;;;;14.33;11.00;;;;;22.38;35.29;101221.64;110248;1265;18864;-47
2022/05/05 07:33:22;;;;;;;;;12.00;10.00;;;;;22.48;35.50;101221.63;110351;1262;18215;-48
2022/05/05 07:35:49;;;;;;;;;14.00;12.00;;;;;22.52;35.49;101218.71;110317;1262;19625;-50
2022/05/05 07:38:16;;;;;;;;;14.00;13.00;;;;;22.43;35.23;101223.23;110172;1265;18675;-49
2022/05/05 07:40:44;;;;;;;;;12.00;11.00;;;;;22.04;35.10;101220.82;109829;1264;399810;-51
2022/05/05 07:43:11;;;;;;;;;17.00;13.00;;;;;21.98;34.99;101220.71;110243;1261;21230;-51
2022/05/05 07:45:38;;;;;;;;;14.00;13.00;;;;;21.96;34.93;101218.40;110376;1261;20007;-53
2022/05/05 07:48:05;;;;;;;;;13.00;11.00;;;;;21.89;34.69;101215.35;110350;1261;18914;-48
2022/05/05 07:50:33;;;;;;;;;13.67;11.67;;;;;21.75;34.74;101214.61;110251;1264;19502;-48
2022/05/05 07:53:00;;;;;;;;;16.67;14.00;;;;;21.82;34.83;101209.09;110253;1264;18697;-51
2022/05/05 07:55:27;;;;;;;;;12.67;12.67;;;;;22.02;34.51;101203.73;110271;1264;18736;-47
2022/05/05 07:57:54;;;;;;;;;14.67;14.00;;;;;22.01;34.32;101209.05;110275;1263;19663;-49
2022/05/05 08:00:22;;;;;;;;;14.67;14.00;;;;;21.70;34.48;101209.37;110220;1264;18675;-51
2022/05/05 08:02:50;;;;;;;;;14.00;14.00;;;;;21.53;34.50;101212.48;110258;1264;18956;-50
2022/05/05 08:05:17;;;;;;;;;18.00;16.00;;;;;21.45;34.46;101211.44;110180;1265;19518;-48
2022/05/05 08:07:44;;;;;;;;;14.67;13.67;;;;;21.34;34.91;101209.46;110206;1264;18719;-48
2022/05/05 08:10:12;;;;;;;;;17.33;17.00;;;;;21.36;34.63;101210.80;110218;1265;18811;-49
2022/05/05 08:12:39;;;;;;;;;17.00;16.00;;;;;21.28;34.72;101218.20;110212;1264;19530;-48
2022/05/05 08:15:07;;;;;;;;;14.67;13.33;;;;;21.36;34.69;101219.27;110231;1264;18736;-48
2022/05/05 08:17:34;;;;;;;;;16.00;16.00;;;;;21.56;34.36;101220.52;110225;1263;22126;-48
2022/05/05 08:20:02;;;;;;;;;19.33;16.67;;;;;21.66;34.29;101223.08;110224;1264;19482;-46
2022/05/05 08:22:29;;;;;;;;;16.67;16.00;;;;;21.60;34.43;101227.10;110265;1265;18773;-47
2022/05/05 08:30:26;;;;;;;;;16.67;13.67;;;;;21.91;34.26;101226.56;110252;1265;18772;-49
2022/05/05 08:32:53;;;;;;;;;16.67;15.33;;;;;21.95;34.36;101225.81;110260;1264;19724;-50
2022/05/05 08:35:22;;;;;;;;;17.33;13.67;;;;;21.99;34.71;101226.08;110252;1264;21560;-49
2022/05/05 08:37:50;;;;;;;;;18.00;16.67;;;;;21.91;34.88;101221.20;110292;1265;18754;-47
2022/05/05 08:40:17;;;;;;;;;17.33;14.67;;;;;21.71;35.31;101223.65;110236;1264;19229;-51
2022/05/05 08:42:44;;;;;;;;;16.00;14.00;;;;;21.66;35.56;101223.38;110260;1264;19561;-50
2022/05/05 08:45:11;;;;;;;;;14.00;13.00;;;;;21.80;35.29;101228.02;110234;1264;20739;-51
2022/05/05 08:47:39;;;;;;;;;17.00;16.00;;;;;21.87;35.12;101222.80;110239;1265;18903;-51
2022/05/05 08:50:06;;;;;;;;;16.00;14.00;;;;;21.84;35.22;101217.54;110217;1263;22801;-49
2022/05/05 08:52:33;;;;;;;;;19.00;17.00;;;;;21.88;35.06;101215.35;110217;1263;18825;-49
2022/05/05 08:55:00;;;;;;;;;17.00;16.00;;;;;21.72;35.33;101210.61;110263;1264;18886;-48
2022/05/05 08:57:28;;;;;;;;;16.33;16.00;;;;;21.69;35.54;101215.12;110238;1264;19471;-50
2022/05/05 08:59:55;;;;;;;;;17.33;17.33;;;;;21.78;35.72;101221.84;110241;1264;23144;-50
2022/05/05 09:02:23;;;;;;;;;16.50;14.00;;;;;21.76;35.78;101221.49;110200;1265;19027;-52
2022/05/05 09:04:50;;;;;;;;;13.67;13.67;;;;;21.69;36.07;101219.87;110223;1264;22781;-50
2022/05/05 09:07:17;;;;;;;;;16.00;16.00;;;;;21.69;36.28;101216.73;110224;1264;23290;-49
2022/05/05 09:09:45;;;;;;;;;18.33;16.33;;;;;21.76;36.04;101213.63;110120;1264;19370;-49
2022/05/05 09:12:12;;;;;;;;;15.00;14.00;;;;;21.78;35.86;101212.98;110145;1264;20695;-49
2022/05/05 09:14:40;;;;;;;;;16.00;13.00;;;;;21.93;35.79;101212.95;110022;1264;21152;-50
2022/05/05 09:17:07;;;;;;;;;20.33;18.00;;;;;22.01;35.64;101217.98;110220;1264;21012;-48
2022/05/05 09:19:34;;;;;;;;;17.00;16.67;;;;;21.88;35.55;101211.53;110164;1263;20971;-50
2022/05/05 09:22:02;;;;;;;;;16.67;15.33;;;;;21.89;35.64;101219.40;110279;1265;18704;-49
2022/05/05 09:24:43;;;;;;;;;16.00;14.00;;;;;21.79;35.51;101217.27;110269;1264;19095;-50
2022/05/05 09:27:10;;;;;;;;;16.00;16.00;;;;;21.78;35.42;101217.13;110270;1264;19808;-49
2022/05/05 09:29:38;;;;;;;;;20.67;16.00;;;;;21.99;35.40;101212.80;110246;1265;19173;-52
2022/05/05 09:32:05;;;;;;;;;17.00;16.00;;;;;22.12;35.14;101216.25;110121;1264;19165;-47
2022/05/05 09:34:32;;;;;;;;;21.00;14.00;;;;;22.02;35.27;101208.13;109981;1264;23390;-49
2022/05/05 09:36:59;;;;;;;;;21.00;18.00;;;;;21.76;35.20;101211.74;110011;1264;18862;-46
2022/05/05 09:39:26;;;;;;;;;16.00;16.00;;;;;21.48;35.49;101207.05;110253;1264;18806;-49
2022/05/05 09:41:54;;;;;;;;;17.00;17.00;;;;;21.49;35.60;101201.51;110122;1265;19537;-49
2022/05/05 09:44:21;;;;;;;;;21.00;18.00;;;;;21.67;35.61;101208.89;110219;1263;18803;-50
2022/05/05 09:46:49;;;;;;;;;19.67;17.33;;;;;21.89;35.49;101202.45;110276;1264;18888;-51
2022/05/05 09:49:16;;;;;;;;;17.00;16.67;;;;;21.99;35.38;101198.91;110291;1264;19963;-52
2022/05/05 09:51:44;;;;;;;;;21.00;18.00;;;;;21.94;35.21;101200.29;110299;1264;20137;-50
2022/05/05 09:59:41;;;;;;;;;20.00;18.00;;;;;22.03;35.57;101204.27;110286;1262;18689;-48
2022/05/05 10:02:10;;;;;;;;;18.33;18.00;;;;;21.86;35.31;101199.48;110280;1262;19061;-50
2022/05/05 10:04:39;;;;;;;;;21.50;17.50;;;;;21.98;35.59;101200.86;110258;1262;20070;-50
2022/05/05 10:07:06;;;;;;;;;19.00;17.67;;;;;22.02;35.45;101196.72;110245;1262;18692;-55
2022/05/05 10:09:33;;;;;;;;;19.67;18.00;;;;;22.22;35.60;101194.42;110200;1261;23100;-50
2022/05/05 10:12:01;;;;;;;;;20.33;17.67;;;;;22.22;35.18;101201.45;110017;1262;21933;-49
2022/05/05 10:14:28;;;;;;;;;20.67;20.00;;;;;22.24;35.21;101197.92;110122;1262;18783;-49
2022/05/05 10:16:55;;;;;;;;;20.00;18.00;;;;;22.28;35.20;101194.77;110052;1262;18904;-49
2022/05/05 10:19:23;;;;;;;;;21.00;20.67;;;;;22.27;35.30;101191.39;110243;1262;19598;-49
2022/05/05 10:21:50;;;;;;;;;17.00;17.00;;;;;22.18;34.90;101187.56;110274;1262;18758;-49
2022/05/05 10:24:17;;;;;;;;;17.50;17.00;;;;;22.18;35.03;101184.16;110206;1262;22479;-49
2022/05/05 10:26:45;;;;;;;;;19.33;18.00;;;;;22.13;34.70;101182.61;110259;1261;19665;-50
2022/05/05 10:29:12;;;;;;;;;20.67;18.67;;;;;21.86;34.43;101181.89;110189;1262;22433;-50
2022/05/05 10:31:39;;;;;;;;;18.67;17.00;;;;;21.85;34.94;101176.73;110175;1262;19367;-49
2022/05/05 10:34:07;;;;;;;;;18.00;17.00;;;;;21.96;35.20;101178.39;110315;1261;19655;-50
2022/05/05 10:36:34;;;;;;;;;18.00;17.00;;;;;22.08;35.29;101177.85;110237;1264;18938;-50
2022/05/05 10:39:01;;;;;;;;;20.00;18.67;;;;;22.11;34.79;101175.61;110270;1264;21902;-51
2022/05/05 10:41:29;;;;;;;;;18.00;17.33;;;;;22.17;34.80;101172.42;110298;1262;19566;-48
2022/05/05 10:43:56;;;;;;;;;21.00;19.33;;;;;22.31;35.01;101171.69;110232;1262;18755;-48
2022/05/05 10:46:23;;;;;;;;;24.00;21.00;;;;;22.13;34.07;101170.80;110294;1262;18736;-48
2022/05/05 10:48:50;;;;;;;;;20.00;18.00;;;;;21.90;34.37;101173.08;110328;1262;22110;-50
2022/05/05 10:51:17;;;;;;;;;20.50;20.00;;;;;21.89;34.00;101169.12;110225;1262;18867;-51
2022/05/05 10:53:45;;;;;;;;;21.00;20.00;;;;;21.85;34.28;101164.45;110201;1265;22857;-49
2022/05/05 10:56:14;;;;;;;;;22.67;20.33;;;;;21.89;36.15;101157.86;110328;1262;19463;-50
2022/05/05 10:58:42;;;;;;;;;18.67;17.33;;;;;21.98;35.54;101154.66;110351;1261;18680;-49
2022/05/05 11:01:09;;;;;;;;;18.00;17.00;;;;;22.07;35.44;101156.55;110302;1262;18817;-51
2022/05/05 11:03:36;;;;;;;;;24.00;21.50;;;;;22.21;35.36;101153.05;110265;1262;19463;-50
2022/05/05 11:06:05;;;;;;;;;20.00;20.00;;;;;22.12;35.02;101150.56;110221;1264;18766;-50
2022/05/05 11:08:32;;;;;;;;;18.67;16.67;;;;;22.09;34.86;101152.70;110288;1262;19067;-50
2022/05/05 11:13:44;;;;;;;;;18.67;16.00;;;;;22.33;34.69;101145.55;110417;1262;22903;-52
2022/05/05 11:21:42;;;;;;;;;18.00;17.00;;;;;22.54;33.87;101137.86;110341;1262;18998;-48
2022/05/05 11:24:09;;;;;;;;;18.33;18.33;;;;;22.57;33.28;101134.59;110421;1261;20900;-47
2022/05/05 11:26:36;;;;;;;;;18.50;18.50;;;;;22.60;33.31;101135.97;110283;1262;19672;-49
2022/05/05 11:29:04;;;;;;;;;16.50;15.50;;;;;22.54;33.27;101135.14;110282;1262;19423;-48
2022/05/05 11:31:31;;;;;;;;;18.00;17.00;;;;;22.60;33.29;101131.87;110266;1262;20383;-50
2022/05/05 11:33:58;;;;;;;;;17.00;15.00;;;;;22.63;33.09;101133.86;110405;1261;19624;-49
2022/05/05 11:36:26;;;;;;;;;18.00;18.00;;;;;22.69;33.03;101133.52;110334;1262;18658;-49
2022/05/05 11:38:53;;;;;;;;;18.33;18.00;;;;;22.71;33.01;101131.52;110276;1262;18664;-50
2022/05/05 11:41:20;;;;;;;;;19.00;18.00;;;;;22.71;32.79;101137.71;110307;1261;19519;-49
2022/05/05 11:46:32;;;;;;;;;17.33;17.00;;;;;22.50;33.03;101131.52;110410;1262;19134;-49
2022/05/05 11:48:59;;;;;;;;;18.00;18.00;;;;;22.47;33.06;101132.10;110314;1262;19539;-50
2022/05/05 11:51:27;;;;;;;;;21.00;18.00;;;;;22.31;33.10;101131.98;110258;1262;19226;-46